createdAt,value
2023-02-06T00:01:50.451Z,84.70
2023-02-06T00:04:19.350Z,84.78
2023-02-06T00:06:47.228Z,84.94
2023-02-06T00:09:15.237Z,84.83
2023-02-06T00:11:43.125Z,84.67
2023-02-06T00:14:11.099Z,84.78
2023-02-06T00:16:39.128Z,84.71
2023-02-06T00:19:07.115Z,84.58
2023-02-06T00:21:35.050Z,84.74
2023-02-06T00:24:04.006Z,84.69
2023-02-06T00:26:32.185Z,84.75
2023-02-06T00:29:00.163Z,84.85
2023-02-06T00:31:28.194Z,84.91
2023-02-06T00:33:56.147Z,84.73
2023-02-06T00:36:24.128Z,84.78
2023-02-06T00:38:52.659Z,85.01
2023-02-06T00:41:21.129Z,84.75
2023-02-06T00:43:49.166Z,84.55
2023-02-06T00:46:17.411Z,84.54
2023-02-06T00:48:45.340Z,84.52
2023-02-06T00:51:13.296Z,84.65
2023-02-06T00:53:41.159Z,84.76
2023-02-06T00:56:09.146Z,84.57
2023-02-06T00:58:37.246Z,84.56
2023-02-06T01:01:05.267Z,84.56
2023-02-06T01:03:33.386Z,84.65
2023-02-06T01:06:01.684Z,85.09
2023-02-06T01:08:29.645Z,84.91
2023-02-06T01:11:00.610Z,84.81
2023-02-06T01:13:28.798Z,84.75
2023-02-06T01:15:56.776Z,84.83
2023-02-06T01:18:24.740Z,84.80
2023-02-06T01:20:52.661Z,84.67
2023-02-06T01:23:20.607Z,84.76
2023-02-06T01:25:48.528Z,84.71
2023-02-06T01:28:17.583Z,84.33
2023-02-06T01:30:45.568Z,84.36
2023-02-06T01:33:13.519Z,84.45
2023-02-06T01:35:41.460Z,84.55
2023-02-06T01:38:09.414Z,84.72
2023-02-06T01:40:37.343Z,84.98
2023-02-06T01:43:16.879Z,85.00
2023-02-06T01:45:47.072Z,84.95
2023-02-06T01:48:19.805Z,84.81
2023-02-06T01:50:56.486Z,84.84
2023-02-06T01:53:25.300Z,84.67
2023-02-06T01:55:56.108Z,84.60
2023-02-06T01:58:35.793Z,84.45
2023-02-06T02:01:04.407Z,84.51
2023-02-06T02:03:36.503Z,84.56
2023-02-06T02:06:10.956Z,84.80
2023-02-06T02:08:40.034Z,84.76
2023-02-06T02:11:11.057Z,84.76
2023-02-06T02:13:39.714Z,84.47
2023-02-06T02:16:18.269Z,84.55
2023-02-06T02:19:12.213Z,84.78
2023-02-06T02:22:09.130Z,84.69
2023-02-06T02:25:36.235Z,84.63
2023-02-06T02:28:46.195Z,84.82
2023-02-06T02:31:25.994Z,84.76
2023-02-06T02:34:15.416Z,84.58
2023-02-06T02:37:17.244Z,84.46
2023-02-06T02:39:57.138Z,84.49
2023-02-06T02:42:39.147Z,84.16
2023-02-06T02:45:38.242Z,84.17
2023-02-06T02:48:12.803Z,84.13
2023-02-06T02:50:41.262Z,84.08
2023-02-06T02:53:09.185Z,84.32
2023-02-06T02:55:37.491Z,84.30
2023-02-06T02:58:12.262Z,84.35
2023-02-06T03:00:46.126Z,84.51
2023-02-06T03:03:16.048Z,84.33
2023-02-06T03:06:40.350Z,84.45
2023-02-06T03:09:39.792Z,84.48
2023-02-06T03:12:13.818Z,84.42
2023-02-06T03:14:49.945Z,84.41
2023-02-06T03:17:28.437Z,84.37
2023-02-06T03:19:59.362Z,84.50
2023-02-06T03:22:29.523Z,84.61
2023-02-06T03:24:59.288Z,84.58
2023-02-06T03:27:30.171Z,84.52
2023-02-06T03:30:01.205Z,84.48
2023-02-06T03:32:34.533Z,84.51
2023-02-06T03:35:10.380Z,84.38
2023-02-06T03:37:39.040Z,84.30
2023-02-06T03:40:08.872Z,84.39
2023-02-06T03:42:41.382Z,84.45
2023-02-06T03:45:48.065Z,84.45
2023-02-06T03:48:22.798Z,84.56
2023-02-06T03:50:54.411Z,84.55
2023-02-06T03:53:26.447Z,84.39
2023-02-06T03:55:59.318Z,84.30
2023-02-06T03:58:27.417Z,84.35
2023-02-06T04:00:55.543Z,84.23
2023-02-06T04:03:24.205Z,84.33
2023-02-06T04:05:52.154Z,84.20
2023-02-06T04:08:20.191Z,84.12
2023-02-06T04:10:48.156Z,84.02
2023-02-06T04:13:16.232Z,84.13
2023-02-06T04:15:44.185Z,84.19
2023-02-06T04:18:12.053Z,84.36
2023-02-06T04:20:41.076Z,84.30
2023-02-06T04:23:09.257Z,84.40
2023-02-06T04:25:37.532Z,84.38
2023-02-06T04:28:05.930Z,84.18
2023-02-06T04:30:33.996Z,84.35
2023-02-06T04:33:02.065Z,84.25
2023-02-06T04:35:30.167Z,84.44
2023-02-06T04:37:58.247Z,84.40
2023-02-06T04:40:26.199Z,84.56
2023-02-06T04:42:54.132Z,84.60
2023-02-06T04:45:22.058Z,84.61
2023-02-06T04:47:50.390Z,84.69
2023-02-06T04:50:18.472Z,84.66
2023-02-06T04:52:46.458Z,84.70
2023-02-06T04:55:14.389Z,84.74
2023-02-06T04:57:42.480Z,84.74
2023-02-06T05:00:37.985Z,84.86
2023-02-06T05:03:06.696Z,85.04
2023-02-06T05:05:34.911Z,85.10
2023-02-06T05:08:02.990Z,84.88
2023-02-06T05:10:30.994Z,84.77
2023-02-06T05:12:58.922Z,84.95
2023-02-06T05:15:27.896Z,84.88
2023-02-06T05:17:55.843Z,84.86
2023-02-06T05:20:23.763Z,84.78
2023-02-06T05:22:51.658Z,84.86
2023-02-06T05:25:19.663Z,84.94
2023-02-06T05:27:47.887Z,85.00
2023-02-06T05:30:15.989Z,84.86
2023-02-06T05:32:44.493Z,84.83
2023-02-06T05:35:12.430Z,84.87
2023-02-06T05:37:40.426Z,84.94
2023-02-06T05:40:09.863Z,84.94
2023-02-06T05:42:38.199Z,85.11
2023-02-06T05:45:06.628Z,84.89
2023-02-06T05:47:34.523Z,85.04
2023-02-06T05:50:02.445Z,84.88
2023-02-06T05:52:30.419Z,84.85
2023-02-06T05:54:58.336Z,84.85
2023-02-06T05:57:26.357Z,84.91
2023-02-06T05:59:54.327Z,84.74
2023-02-06T06:02:22.293Z,84.81
2023-02-06T06:04:50.288Z,84.77
2023-02-06T06:07:18.231Z,85.05
2023-02-06T06:09:46.292Z,85.01
2023-02-06T06:12:14.454Z,84.79
2023-02-06T06:14:42.886Z,84.72
2023-02-06T06:17:10.870Z,84.25
2023-02-06T06:19:38.830Z,84.39
2023-02-06T06:22:07.077Z,84.56
2023-02-06T06:24:35.048Z,84.72
2023-02-06T06:27:03.903Z,84.55
2023-02-06T06:29:31.877Z,84.46
2023-02-06T06:31:59.798Z,84.63
2023-02-06T06:34:27.811Z,84.62
2023-02-06T06:36:57.254Z,84.60
2023-02-06T06:39:25.176Z,84.51
2023-02-06T06:41:53.169Z,84.44
2023-02-06T06:44:21.327Z,84.50
2023-02-06T06:46:49.618Z,84.64
2023-02-06T06:49:17.991Z,84.72
2023-02-06T06:51:45.947Z,84.80
2023-02-06T06:54:15.356Z,84.92
2023-02-06T06:56:43.277Z,84.99
2023-02-06T06:59:12.113Z,84.94
2023-02-06T07:01:40.198Z,84.69
2023-02-06T07:04:08.658Z,84.69
2023-02-06T07:06:36.580Z,84.57
2023-02-06T07:09:04.565Z,84.76
2023-02-06T07:11:32.591Z,84.45
2023-02-06T07:14:00.602Z,83.95
2023-02-06T07:16:28.861Z,83.71
2023-02-06T07:18:57.159Z,83.89
2023-02-06T07:21:25.346Z,84.32
2023-02-06T07:23:53.317Z,84.37
2023-02-06T07:26:21.534Z,84.00
2023-02-06T07:28:49.964Z,83.84
2023-02-06T07:31:17.927Z,84.03
2023-02-06T07:33:45.906Z,84.25
2023-02-06T07:36:15.813Z,84.36
2023-02-06T07:38:44.207Z,84.59
2023-02-06T07:41:12.874Z,84.79
2023-02-06T07:43:40.805Z,84.39
2023-02-06T07:46:08.778Z,84.25
2023-02-06T07:48:36.715Z,84.67
2023-02-06T07:51:07.416Z,84.77
2023-02-06T07:53:36.060Z,84.74
2023-02-06T07:56:12.690Z,84.52
2023-02-06T07:58:41.209Z,84.52
2023-02-06T08:01:09.934Z,84.04
2023-02-06T08:03:38.508Z,83.72
2023-02-06T08:06:15.043Z,83.27
2023-02-06T08:08:43.972Z,83.09
2023-02-06T08:11:15.148Z,83.14
2023-02-06T08:13:44.007Z,83.28
2023-02-06T08:16:20.642Z,82.67
2023-02-06T08:18:49.065Z,82.44
2023-02-06T08:21:22.876Z,82.41
2023-02-06T08:23:58.176Z,81.47
2023-02-06T08:26:28.614Z,81.82
2023-02-06T08:28:58.257Z,81.73
2023-02-06T08:31:29.311Z,81.39
2023-02-06T08:33:57.416Z,81.89
2023-02-06T08:36:26.743Z,81.42
2023-02-06T08:38:54.629Z,81.33
2023-02-06T08:41:26.913Z,81.17
2023-02-06T08:43:57.676Z,81.10
2023-02-06T08:46:28.913Z,80.80
2023-02-06T08:49:04.948Z,80.42
2023-02-06T08:51:34.828Z,80.48
2023-02-06T08:54:09.233Z,80.70
2023-02-06T08:56:38.190Z,80.96
2023-02-06T08:59:07.540Z,80.65
2023-02-06T09:01:36.823Z,80.91
2023-02-06T09:04:08.247Z,80.16
2023-02-06T09:06:38.542Z,80.09
2023-02-06T09:09:08.116Z,79.49
2023-02-06T09:11:36.618Z,75.21
2023-02-06T09:14:06.272Z,76.49
2023-02-06T09:16:34.881Z,76.75
2023-02-06T09:19:03.041Z,76.95
2023-02-06T09:21:33.688Z,74.83
2023-02-06T09:24:05.723Z,75.55
2023-02-06T09:26:53.420Z,75.73
2023-02-06T09:29:25.640Z,76.78
2023-02-06T09:31:53.699Z,76.94
2023-02-06T09:34:21.699Z,76.56
2023-02-06T09:36:49.793Z,72.85
2023-02-06T09:39:18.464Z,74.13
2023-02-06T09:41:49.001Z,75.02
2023-02-06T09:44:25.372Z,73.40
2023-02-06T09:47:05.581Z,74.35
2023-02-06T09:49:40.934Z,74.65
2023-02-06T09:52:33.629Z,75.09
2023-02-06T09:55:33.295Z,75.75
2023-02-06T09:58:16.823Z,73.61
2023-02-06T10:00:54.475Z,73.43
2023-02-06T10:03:55.868Z,74.05
2023-02-06T10:06:44.437Z,71.90
2023-02-06T10:09:35.671Z,72.19
2023-02-06T10:12:14.457Z,72.85
2023-02-06T10:14:57.363Z,73.27
2023-02-06T10:17:29.164Z,72.19
2023-02-06T10:20:03.112Z,71.01
2023-02-06T10:22:47.624Z,71.16
2023-02-06T10:25:31.108Z,71.41
2023-02-06T10:28:08.121Z,72.29
2023-02-06T10:30:48.038Z,72.37
2023-02-06T10:33:26.077Z,71.31
2023-02-06T10:36:08.085Z,71.12
2023-02-06T10:38:42.542Z,72.95
2023-02-06T10:41:19.649Z,69.72
2023-02-06T10:43:57.949Z,71.01
2023-02-06T10:46:48.136Z,70.60
2023-02-06T10:49:38.926Z,70.22
2023-02-06T10:52:22.570Z,67.92
2023-02-06T10:54:55.042Z,67.08
2023-02-06T10:57:28.694Z,66.31
2023-02-06T11:00:01.640Z,65.80
2023-02-06T11:03:06.262Z,65.92
2023-02-06T11:05:35.999Z,66.03
2023-02-06T11:08:22.074Z,66.57
2023-02-06T11:10:50.713Z,67.37
2023-02-06T11:13:30.841Z,65.00
2023-02-06T11:16:05.119Z,66.22
2023-02-06T11:18:46.670Z,65.54
2023-02-06T11:21:36.212Z,66.31
2023-02-06T11:24:13.698Z,65.12
2023-02-06T11:26:45.624Z,65.28
2023-02-06T11:29:25.329Z,65.41
2023-02-06T11:32:02.136Z,64.85
2023-02-06T11:34:34.369Z,65.37
2023-02-06T11:37:26.965Z,66.41
2023-02-06T11:39:54.862Z,65.62
2023-02-06T11:42:24.959Z,66.11
2023-02-06T11:44:54.003Z,65.98
2023-02-06T11:47:21.874Z,65.94
2023-02-06T11:49:49.918Z,65.09
2023-02-06T11:52:33.189Z,64.91
2023-02-06T11:55:02.701Z,61.64
2023-02-06T11:57:34.082Z,61.72
2023-02-06T12:00:19.689Z,63.63
2023-02-06T12:02:52.589Z,63.73
2023-02-06T12:05:22.757Z,63.71
2023-02-06T12:08:04.663Z,63.85
2023-02-06T12:10:36.499Z,60.17
2023-02-06T12:13:09.565Z,60.53
2023-02-06T12:15:48.561Z,57.70
2023-02-06T12:18:22.147Z,60.35
2023-02-06T12:21:12.999Z,58.33
2023-02-06T12:23:58.378Z,56.79
2023-02-06T12:26:29.652Z,55.65
2023-02-06T12:29:24.771Z,59.24
2023-02-06T12:32:08.413Z,55.23
2023-02-06T12:35:01.075Z,55.22
2023-02-06T12:37:41.357Z,56.55
2023-02-06T12:40:33.755Z,51.45
2023-02-06T12:43:11.896Z,47.90
2023-02-06T12:45:48.726Z,50.85
2023-02-06T12:48:41.868Z,53.48
2023-02-06T12:51:28.940Z,51.83
2023-02-06T12:54:02.311Z,53.34
2023-02-06T12:56:33.850Z,54.96
2023-02-06T12:59:20.566Z,52.43
2023-02-06T13:02:34.871Z,52.38
2023-02-06T13:05:15.866Z,51.92
2023-02-06T13:07:49.367Z,49.70
2023-02-06T13:10:25.588Z,51.30
2023-02-06T13:13:01.393Z,50.50
2023-02-06T13:15:37.862Z,51.66
2023-02-06T13:18:45.589Z,52.87
2023-02-06T13:21:22.484Z,51.00
2023-02-06T13:24:02.342Z,51.28
2023-02-06T13:26:56.719Z,49.36
2023-02-06T13:29:37.583Z,50.75
2023-02-06T13:32:17.579Z,51.21
2023-02-06T13:35:00.154Z,50.25
2023-02-06T13:37:48.169Z,50.68
2023-02-06T13:40:30.867Z,50.90
2023-02-06T13:43:08.808Z,51.13
2023-02-06T13:46:12.583Z,51.98
2023-02-06T13:49:03.918Z,50.25
2023-02-06T13:51:45.358Z,48.95
2023-02-06T13:54:13.581Z,48.16
2023-02-06T13:56:57.729Z,49.41
2023-02-06T13:59:34.709Z,49.90
2023-02-06T14:02:30.280Z,48.85
2023-02-06T14:05:00.402Z,48.75
2023-02-06T14:07:53.736Z,48.83
2023-02-06T14:10:46.123Z,48.32
2023-02-06T14:13:28.733Z,48.47
2023-02-06T14:16:14.013Z,48.69
2023-02-06T14:18:48.164Z,48.69
2023-02-06T14:21:52.470Z,46.97
2023-02-06T14:24:23.175Z,46.25
2023-02-06T14:27:20.216Z,47.25
2023-02-06T14:29:51.098Z,48.96
2023-02-06T14:32:22.120Z,49.33
2023-02-06T14:35:12.193Z,49.38
2023-02-06T14:38:38.638Z,49.39
2023-02-06T14:41:07.792Z,50.23
2023-02-06T14:43:39.618Z,50.46
2023-02-06T14:46:12.649Z,47.93
2023-02-06T14:49:01.277Z,48.88
2023-02-06T14:51:32.142Z,48.66
2023-02-06T14:54:04.279Z,47.64
2023-02-06T14:56:41.223Z,46.56
2023-02-06T14:59:18.181Z,48.38
2023-02-06T15:01:49.413Z,48.32
2023-02-06T15:04:22.195Z,47.26
2023-02-06T15:06:53.574Z,47.86
2023-02-06T15:09:39.367Z,47.36
2023-02-06T15:12:25.026Z,48.45
2023-02-06T15:14:54.564Z,48.48
2023-02-06T15:17:26.602Z,48.21
2023-02-06T15:20:26.160Z,48.37
2023-02-06T15:23:18.423Z,47.82
2023-02-06T15:26:05.430Z,47.94
2023-02-06T15:28:35.101Z,48.27
2023-02-06T15:31:03.233Z,48.61
2023-02-06T15:33:34.590Z,48.70
2023-02-06T15:36:04.541Z,48.93
2023-02-06T15:38:33.893Z,48.91
2023-02-06T15:41:08.718Z,48.79
2023-02-06T15:43:38.462Z,48.90
2023-02-06T15:46:07.709Z,49.08
2023-02-06T15:48:51.788Z,49.25
2023-02-06T15:51:22.963Z,49.45
2023-02-06T15:54:04.605Z,49.55
2023-02-06T15:56:36.344Z,49.69
2023-02-06T15:59:14.475Z,49.77
2023-02-06T16:01:43.553Z,50.26
2023-02-06T16:04:39.786Z,50.04
2023-02-06T16:07:16.181Z,50.25
2023-02-06T16:09:52.580Z,49.95
2023-02-06T16:12:22.054Z,49.95
2023-02-06T16:14:57.876Z,50.48
2023-02-06T16:17:41.287Z,50.47
2023-02-06T16:20:28.920Z,50.56
2023-02-06T16:23:25.983Z,50.68
2023-02-06T16:26:24.332Z,50.94
2023-02-06T16:29:00.127Z,51.02
2023-02-06T16:31:34.855Z,51.25
2023-02-06T16:34:42.265Z,51.44
2023-02-06T16:37:16.584Z,51.35
2023-02-06T16:39:45.823Z,51.74
2023-02-06T16:42:26.071Z,51.72
2023-02-06T16:45:00.166Z,51.68
2023-02-06T16:47:28.392Z,52.30
2023-02-06T16:49:56.343Z,52.30
2023-02-06T16:52:27.699Z,53.26
2023-02-06T16:54:59.074Z,53.18
2023-02-06T16:57:39.228Z,53.64
2023-02-06T17:00:18.563Z,53.59
2023-02-06T17:02:48.165Z,53.67
2023-02-06T17:05:16.510Z,53.84
2023-02-06T17:07:46.002Z,53.72
2023-02-06T17:10:14.675Z,53.84
2023-02-06T17:12:45.621Z,54.07
2023-02-06T17:15:16.236Z,54.19
2023-02-06T17:17:45.132Z,54.50
2023-02-06T17:20:32.869Z,54.82
2023-02-06T17:23:00.955Z,54.79
2023-02-06T17:25:31.678Z,55.01
2023-02-06T17:28:00.679Z,55.01
2023-02-06T17:30:28.969Z,55.21
2023-02-06T17:32:57.007Z,55.16
2023-02-06T17:35:25.146Z,55.14
2023-02-06T17:37:53.392Z,55.29
2023-02-06T17:40:29.323Z,55.74
2023-02-06T17:42:59.099Z,57.08
2023-02-06T17:45:28.070Z,58.08
2023-02-06T17:48:01.198Z,58.61
2023-02-06T17:50:41.325Z,59.15
2023-02-06T17:53:13.993Z,58.88
2023-02-06T17:55:42.050Z,58.36
2023-02-06T17:58:09.979Z,58.67
2023-02-06T18:00:38.414Z,60.18
2023-02-06T18:03:07.223Z,61.67
2023-02-06T18:05:35.467Z,62.62
2023-02-06T18:08:03.734Z,63.54
2023-02-06T18:10:31.707Z,64.12
2023-02-06T18:12:59.998Z,64.99
2023-02-06T18:15:30.369Z,65.58
2023-02-06T18:18:00.247Z,65.79
2023-02-06T18:20:28.265Z,69.38
2023-02-06T18:22:56.405Z,67.95
2023-02-06T18:25:24.638Z,66.35
2023-02-06T18:27:52.600Z,67.37
2023-02-06T18:30:20.822Z,68.82
2023-02-06T18:32:48.824Z,68.77
2023-02-06T18:35:16.864Z,69.41
2023-02-06T18:37:44.878Z,69.93
2023-02-06T18:40:12.959Z,71.20
2023-02-06T18:42:54.707Z,71.09
2023-02-06T18:45:26.094Z,69.89
2023-02-06T18:48:05.025Z,70.52
2023-02-06T18:50:39.788Z,69.74
2023-02-06T18:53:09.035Z,70.47
2023-02-06T18:55:37.405Z,70.46
2023-02-06T18:58:06.730Z,70.79
2023-02-06T19:00:37.957Z,71.67
2023-02-06T19:03:06.768Z,71.37
2023-02-06T19:05:36.057Z,70.89
2023-02-06T19:08:04.216Z,71.42
2023-02-06T19:10:32.609Z,71.29
2023-02-06T19:13:00.643Z,71.11
2023-02-06T19:15:30.578Z,71.25
2023-02-06T19:18:00.848Z,72.11
2023-02-06T19:20:29.542Z,71.59
2023-02-06T19:22:58.028Z,71.46
2023-02-06T19:25:26.811Z,71.39
2023-02-06T19:27:55.285Z,71.42
2023-02-06T19:30:23.376Z,71.98
2023-02-06T19:32:51.710Z,72.00
2023-02-06T19:35:20.583Z,71.84
2023-02-06T19:37:48.853Z,70.89
2023-02-06T19:40:17.346Z,70.98
2023-02-06T19:42:45.415Z,71.42
2023-02-06T19:45:13.411Z,71.30
2023-02-06T19:47:41.393Z,71.06
2023-02-06T19:50:14.131Z,71.49
2023-02-06T19:52:42.393Z,71.78
2023-02-06T19:55:10.892Z,72.10
2023-02-06T19:57:39.701Z,71.72
2023-02-06T20:00:09.001Z,71.93
2023-02-06T20:02:37.596Z,71.68
2023-02-06T20:05:05.963Z,71.50
2023-02-06T20:07:33.939Z,71.90
2023-02-06T20:10:02.338Z,71.53
2023-02-06T20:12:31.626Z,70.78
2023-02-06T20:15:00.639Z,70.52
2023-02-06T20:17:29.159Z,70.74
2023-02-06T20:20:00.131Z,70.96
2023-02-06T20:22:28.210Z,71.84
2023-02-06T20:24:56.377Z,72.06
2023-02-06T20:27:24.874Z,71.53
2023-02-06T20:29:53.127Z,71.51
2023-02-06T20:32:21.441Z,72.32
2023-02-06T20:34:49.472Z,72.87
2023-02-06T20:37:18.127Z,73.09
2023-02-06T20:39:46.268Z,72.97
2023-02-06T20:42:14.376Z,72.26
2023-02-06T20:44:42.598Z,73.47
2023-02-06T20:47:10.738Z,73.78
2023-02-06T20:49:38.814Z,74.00
2023-02-06T20:52:06.984Z,74.30
2023-02-06T20:54:35.110Z,74.46
2023-02-06T20:57:03.276Z,74.33
2023-02-06T20:59:31.344Z,74.67
2023-02-06T21:01:59.342Z,74.94
2023-02-06T21:04:27.911Z,75.41
2023-02-06T21:06:56.681Z,75.93
2023-02-06T21:09:24.703Z,75.08
2023-02-06T21:11:53.119Z,75.52
2023-02-06T21:14:21.752Z,75.58
2023-02-06T21:16:49.946Z,75.86
2023-02-06T21:19:20.953Z,75.83
2023-02-06T21:21:49.642Z,75.15
2023-02-06T21:24:17.841Z,75.53
2023-02-06T21:26:47.106Z,75.65
2023-02-06T21:29:15.859Z,75.17
2023-02-06T21:31:46.229Z,74.42
2023-02-06T21:34:18.361Z,74.79
2023-02-06T21:36:46.643Z,75.29
2023-02-06T21:39:18.125Z,75.91
2023-02-06T21:41:47.889Z,75.98
2023-02-06T21:45:07.927Z,75.55
2023-02-06T21:47:36.214Z,75.83
2023-02-06T21:50:04.484Z,75.36
2023-02-06T21:52:35.303Z,75.65
2023-02-06T21:55:07.541Z,76.03
2023-02-06T21:57:35.748Z,76.25
2023-02-06T22:00:07.034Z,76.18
2023-02-06T22:02:40.654Z,76.15
2023-02-06T22:05:08.845Z,76.58
2023-02-06T22:07:37.972Z,77.66
2023-02-06T22:10:07.044Z,77.51
2023-02-06T22:12:35.152Z,77.05
2023-02-06T22:15:03.429Z,77.53
2023-02-06T22:17:32.097Z,76.61
2023-02-06T22:20:00.014Z,76.52
2023-02-06T22:22:28.059Z,76.56
2023-02-06T22:24:56.033Z,75.88
2023-02-06T22:27:25.842Z,76.32
2023-02-06T22:29:53.917Z,76.32
2023-02-06T22:32:21.861Z,76.85
2023-02-06T22:34:51.970Z,76.87
2023-02-06T22:37:20.329Z,76.11
2023-02-06T22:39:48.364Z,75.80
2023-02-06T22:42:16.523Z,75.60
2023-02-06T22:44:44.467Z,75.56
2023-02-06T22:47:16.109Z,75.39
2023-02-06T22:49:44.216Z,75.51
2023-02-06T22:52:31.183Z,75.55
2023-02-06T22:54:59.098Z,75.48
2023-02-06T22:57:27.746Z,76.15
2023-02-06T22:59:55.702Z,76.76
2023-02-06T23:02:23.699Z,76.90
2023-02-06T23:04:51.692Z,76.35
2023-02-06T23:07:19.632Z,76.16
2023-02-06T23:09:47.606Z,75.63
2023-02-06T23:12:16.482Z,75.45
2023-02-06T23:14:44.587Z,75.42
2023-02-06T23:17:12.518Z,75.42
2023-02-06T23:19:40.475Z,76.00
2023-02-06T23:22:10.796Z,76.36
2023-02-06T23:24:38.785Z,75.96
2023-02-06T23:27:06.818Z,75.99
2023-02-06T23:29:34.894Z,75.94
2023-02-06T23:32:02.870Z,75.52
2023-02-06T23:34:30.929Z,75.52
2023-02-06T23:36:59.613Z,75.55
2023-02-06T23:39:28.205Z,75.24
2023-02-06T23:41:56.308Z,75.34
2023-02-06T23:44:24.294Z,75.44
2023-02-06T23:46:52.256Z,75.30
2023-02-06T23:49:20.423Z,76.25
2023-02-06T23:51:48.467Z,75.94
2023-02-06T23:56:17.360Z,76.27
